Time;durP1;ratioP1;P1;durP2;ratioP2;P2;SDS_P1;SDS_P2;PMS_P1;PMS_P2;Temp;Humidity;BMP_temperature;BMP_pressure;BME280_temperature;BME280_humidity;BME280_pressure;Samples;Min_cycle;Max_cycle;Signal;HPM_P1;HPM_P2
2023/09/06 00:00:31;;;;;;;13.20;9.00;;;;;;;-128.00;-1.00;-1.00;105578;1251;1004518;-81
2023/09/06 00:03:18;;;;;;;9.90;8.20;;;;;;;-128.00;-1.00;-1.00;105434;1250;1047153;-80
2023/09/06 00:05:44;;;;;;;12.90;8.30;;;;;;;-128.00;-1.00;-1.00;105604;1251;1004273;-80
2023/09/06 00:08:14;;;;;;;12.40;8.00;;;;;;;-128.00;-1.00;-1.00;105658;1250;1003509;-80
2023/09/06 00:10:42;;;;;;;12.20;8.20;;;;;;;-128.00;-1.00;-1.00;105759;1251;1059907;-80
2023/09/06 00:13:09;;;;;;;13.00;8.20;;;;;;;-128.00;-1.00;-1.00;105744;1251;1003726;-80
2023/09/06 00:15:36;;;;;;;15.50;8.40;;;;;;;-128.00;-1.00;-1.00;105656;1250;1003589;-80
2023/09/06 00:18:05;;;;;;;18.60;8.60;;;;;;;-128.00;-1.00;-1.00;105734;1251;1004397;-81
2023/09/06 00:20:36;;;;;;;13.10;7.60;;;;;;;-128.00;-1.00;-1.00;105580;1251;1057881;-80
2023/09/06 00:23:08;;;;;;;15.10;8.40;;;;;;;-128.00;-1.00;-1.00;105587;1251;1060144;-81
2023/09/06 00:25:35;;;;;;;13.20;7.00;;;;;;;-128.00;-1.00;-1.00;105618;1250;1046425;-80
2023/09/06 00:28:06;;;;;;;12.50;8.40;;;;;;;-128.00;-1.00;-1.00;105595;1251;1005041;-80
2023/09/06 00:30:33;;;;;;;14.10;8.30;;;;;;;-128.00;-1.00;-1.00;105602;1250;1061457;-80
2023/09/06 00:33:02;;;;;;;13.20;8.30;;;;;;;-128.00;-1.00;-1.00;105613;1250;1004574;-80
2023/09/06 00:35:28;;;;;;;16.80;7.80;;;;;;;-128.00;-1.00;-1.00;105496;1251;1059060;-80
2023/09/06 00:37:55;;;;;;;16.20;8.20;;;;;;;-128.00;-1.00;-1.00;105621;1250;1004137;-81
2023/09/06 00:40:22;;;;;;;11.80;7.40;;;;;;;-128.00;-1.00;-1.00;105569;1251;1004412;-80
2023/09/06 00:42:52;;;;;;;14.10;8.10;;;;;;;-128.00;-1.00;-1.00;105521;1251;1003823;-80
2023/09/06 00:45:25;;;;;;;17.30;7.10;;;;;;;-128.00;-1.00;-1.00;105610;1251;1058946;-80
2023/09/06 00:47:56;;;;;;;13.60;8.40;;;;;;;-128.00;-1.00;-1.00;105477;1251;1059887;-80
2023/09/06 00:50:23;;;;;;;16.10;9.60;;;;;;;-128.00;-1.00;-1.00;105510;1251;1046264;-80
2023/09/06 00:52:50;;;;;;;19.40;8.20;;;;;;;-128.00;-1.00;-1.00;105616;1250;1003971;-80
2023/09/06 00:55:17;;;;;;;12.10;8.30;;;;;;;-128.00;-1.00;-1.00;105550;1251;1004793;-80
2023/09/06 00:57:44;;;;;;;10.60;7.50;;;;;;;-128.00;-1.00;-1.00;105559;1251;1005033;-80
2023/09/06 01:00:30;;;;;;;14.60;7.90;;;;;;;-128.00;-1.00;-1.00;105499;1251;1004926;-80
2023/09/06 01:02:56;;;;;;;14.80;8.10;;;;;;;-128.00;-1.00;-1.00;105577;1250;1045321;-80
2023/09/06 01:05:23;;;;;;;10.00;7.10;;;;;;;-128.00;-1.00;-1.00;105504;1251;1003457;-80
2023/09/06 01:07:51;;;;;;;15.80;7.50;;;;;;;-128.00;-1.00;-1.00;105619;1251;1004196;-82
2023/09/06 01:10:18;;;;;;;15.70;9.20;;;;;;;-128.00;-1.00;-1.00;105442;1251;1004287;-80
2023/09/06 01:12:44;;;;;;;13.40;6.90;;;;;;;-128.00;-1.00;-1.00;105574;1251;1003924;-80
2023/09/06 01:15:11;;;;;;;16.80;8.00;;;;;;;-128.00;-1.00;-1.00;105604;1251;1003645;-80
2023/09/06 01:17:39;;;;;;;13.50;7.30;;;;;;;-128.00;-1.00;-1.00;105610;1251;1004076;-80
2023/09/06 01:20:16;;;;;;;11.60;7.70;;;;;;;-128.00;-1.00;-1.00;105500;1251;1003929;-80
2023/09/06 01:22:46;;;;;;;20.70;7.40;;;;;;;-128.00;-1.00;-1.00;105583;1251;1058002;-80
2023/09/06 01:25:13;;;;;;;17.40;7.60;;;;;;;-128.00;-1.00;-1.00;105483;1251;1059999;-80
2023/09/06 01:27:39;;;;;;;14.60;7.40;;;;;;;-128.00;-1.00;-1.00;105398;1251;1004417;-80
2023/09/06 01:30:07;;;;;;;12.10;7.50;;;;;;;-128.00;-1.00;-1.00;105612;1251;1004333;-81
2023/09/06 01:32:34;;;;;;;11.50;7.70;;;;;;;-128.00;-1.00;-1.00;105577;1251;1004291;-80
2023/09/06 01:35:01;;;;;;;15.40;7.10;;;;;;;-128.00;-1.00;-1.00;105598;1251;1005273;-80
2023/09/06 01:37:27;;;;;;;14.40;7.50;;;;;;;-128.00;-1.00;-1.00;105602;1251;1006117;-80
2023/09/06 01:39:53;;;;;;;11.40;8.00;;;;;;;-128.00;-1.00;-1.00;105586;1251;1004523;-80
2023/09/06 01:42:22;;;;;;;14.50;7.80;;;;;;;-128.00;-1.00;-1.00;105639;1251;1004629;-80
2023/09/06 01:44:49;;;;;;;13.20;7.50;;;;;;;-128.00;-1.00;-1.00;105641;1251;1004724;-80
2023/09/06 01:47:15;;;;;;;10.20;6.80;;;;;;;-128.00;-1.00;-1.00;105610;1251;1005360;-80
2023/09/06 01:49:44;;;;;;;9.80;6.10;;;;;;;-128.00;-1.00;-1.00;105584;1250;1004487;-80
2023/09/06 01:52:11;;;;;;;15.00;7.10;;;;;;;-128.00;-1.00;-1.00;105572;1251;1045825;-80
2023/09/06 01:54:37;;;;;;;13.40;7.80;;;;;;;-128.00;-1.00;-1.00;105571;1251;1005349;-80
2023/09/06 01:57:06;;;;;;;9.20;6.50;;;;;;;-128.00;-1.00;-1.00;105619;1251;1004328;-80
2023/09/06 01:59:33;;;;;;;15.20;7.60;;;;;;;-128.00;-1.00;-1.00;105584;1251;1058827;-80
2023/09/06 02:01:59;;;;;;;15.40;8.60;;;;;;;-128.00;-1.00;-1.00;105618;1251;1004860;-80
2023/09/06 02:04:25;;;;;;;11.00;6.80;;;;;;;-128.00;-1.00;-1.00;105575;1251;1004493;-80
2023/09/06 02:06:52;;;;;;;12.50;7.40;;;;;;;-128.00;-1.00;-1.00;105594;1255;1004230;-80
2023/09/06 02:09:19;;;;;;;13.00;7.30;;;;;;;-128.00;-1.00;-1.00;105628;1251;1004205;-80
2023/09/06 02:11:45;;;;;;;18.10;7.40;;;;;;;-128.00;-1.00;-1.00;105623;1251;1003598;-80
2023/09/06 02:14:12;;;;;;;10.60;7.10;;;;;;;-128.00;-1.00;-1.00;105503;1251;1003973;-80
2023/09/06 02:16:38;;;;;;;11.60;7.00;;;;;;;-128.00;-1.00;-1.00;105581;1251;1004178;-80
2023/09/06 02:19:06;;;;;;;12.60;7.30;;;;;;;-128.00;-1.00;-1.00;105716;1251;1004468;-80
2023/09/06 02:21:34;;;;;;;13.00;7.20;;;;;;;-128.00;-1.00;-1.00;105761;1251;1003666;-80
2023/09/06 02:24:00;;;;;;;10.80;6.60;;;;;;;-128.00;-1.00;-1.00;105774;1251;1005141;-80
2023/09/06 02:26:29;;;;;;;12.80;7.00;;;;;;;-128.00;-1.00;-1.00;105757;1251;1004232;-80
2023/09/06 02:28:56;;;;;;;12.10;6.60;;;;;;;-128.00;-1.00;-1.00;105652;1254;1047102;-81
2023/09/06 02:31:23;;;;;;;12.00;6.50;;;;;;;-128.00;-1.00;-1.00;105786;1251;1004476;-80
2023/09/06 02:33:49;;;;;;;11.70;6.90;;;;;;;-128.00;-1.00;-1.00;105669;1251;1003586;-80
2023/09/06 02:36:16;;;;;;;15.90;7.80;;;;;;;-128.00;-1.00;-1.00;105761;1251;1004032;-80
2023/09/06 02:38:42;;;;;;;14.20;8.10;;;;;;;-128.00;-1.00;-1.00;105763;1251;1004288;-80
2023/09/06 02:41:08;;;;;;;12.40;6.60;;;;;;;-128.00;-1.00;-1.00;105734;1251;1004381;-80
2023/09/06 02:43:36;;;;;;;12.70;7.20;;;;;;;-128.00;-1.00;-1.00;105636;1251;1004589;-81
2023/09/06 02:46:03;;;;;;;13.60;7.30;;;;;;;-128.00;-1.00;-1.00;105419;1250;1003235;-80
2023/09/06 02:48:29;;;;;;;10.90;6.60;;;;;;;-128.00;-1.00;-1.00;105616;1251;1003663;-80
2023/09/06 02:50:59;;;;;;;23.10;7.60;;;;;;;-128.00;-1.00;-1.00;105604;1251;1004795;-80
2023/09/06 02:53:26;;;;;;;13.10;7.50;;;;;;;-128.00;-1.00;-1.00;105593;1251;1047064;-80
2023/09/06 02:55:53;;;;;;;12.80;7.50;;;;;;;-128.00;-1.00;-1.00;105594;1251;1004746;-80
2023/09/06 02:58:23;;;;;;;10.60;7.00;;;;;;;-128.00;-1.00;-1.00;105619;1251;1004604;-80
2023/09/06 03:00:55;;;;;;;11.70;7.50;;;;;;;-128.00;-1.00;-1.00;105604;1251;1059404;-80
2023/09/06 03:03:22;;;;;;;9.00;6.60;;;;;;;-128.00;-1.00;-1.00;105597;1251;1059736;-80
2023/09/06 03:05:48;;;;;;;13.00;7.40;;;;;;;-128.00;-1.00;-1.00;105586;1251;1004091;-80
2023/09/06 03:08:14;;;;;;;13.10;6.60;;;;;;;-128.00;-1.00;-1.00;105620;1250;1004988;-80
2023/09/06 03:10:41;;;;;;;10.90;6.80;;;;;;;-128.00;-1.00;-1.00;105578;1251;1004175;-81
2023/09/06 03:13:11;;;;;;;12.80;7.30;;;;;;;-128.00;-1.00;-1.00;105506;1251;1004462;-80
2023/09/06 03:15:37;;;;;;;10.80;7.40;;;;;;;-128.00;-1.00;-1.00;105479;1251;1058999;-80
2023/09/06 03:18:05;;;;;;;16.20;8.50;;;;;;;-128.00;-1.00;-1.00;105605;1251;1004726;-80
2023/09/06 03:20:32;;;;;;;14.50;7.80;;;;;;;-128.00;-1.00;-1.00;105522;1251;1004194;-80
2023/09/06 03:23:16;;;;;;;12.20;7.00;;;;;;;-128.00;-1.00;-1.00;105646;1251;1004586;-80
2023/09/06 03:25:49;;;;;;;12.70;6.50;;;;;;;-128.00;-1.00;-1.00;105599;1250;1058475;-80
2023/09/06 03:28:18;;;;;;;10.90;6.50;;;;;;;-128.00;-1.00;-1.00;105585;1251;1060878;-80
2023/09/06 03:30:44;;;;;;;9.00;6.40;;;;;;;-128.00;-1.00;-1.00;105612;1251;1046398;-80
2023/09/06 03:33:11;;;;;;;12.00;7.50;;;;;;;-128.00;-1.00;-1.00;105602;1251;1003492;-80
2023/09/06 03:35:37;;;;;;;11.00;7.70;;;;;;;-128.00;-1.00;-1.00;105633;1250;1004125;-80
2023/09/06 03:38:08;;;;;;;16.20;7.40;;;;;;;-128.00;-1.00;-1.00;105612;1251;1004836;-81
2023/09/06 03:40:35;;;;;;;10.40;6.70;;;;;;;-128.00;-1.00;-1.00;105624;1250;1058550;-80
2023/09/06 03:43:05;;;;;;;13.40;6.90;;;;;;;-128.00;-1.00;-1.00;105572;1251;1004403;-80
2023/09/06 03:45:32;;;;;;;11.80;7.50;;;;;;;-128.00;-1.00;-1.00;105593;1251;1046953;-80
2023/09/06 03:48:00;;;;;;;12.20;6.60;;;;;;;-128.00;-1.00;-1.00;105519;1251;1003546;-81
2023/09/06 03:50:29;;;;;;;11.10;7.20;;;;;;;-128.00;-1.00;-1.00;105617;1251;1004600;-80
2023/09/06 03:52:57;;;;;;;12.50;6.80;;;;;;;-128.00;-1.00;-1.00;105575;1251;1059354;-80
2023/09/06 03:55:24;;;;;;;9.90;6.50;;;;;;;-128.00;-1.00;-1.00;105694;1251;1004737;-80
2023/09/06 03:57:52;;;;;;;10.50;7.30;;;;;;;-128.00;-1.00;-1.00;105714;1251;1003925;-80
2023/09/06 04:00:30;;;;;;;25.10;14.00;;;;;;;-128.00;-1.00;-1.00;105625;1251;1004202;-80
2023/09/06 04:02:57;;;;;;;11.70;7.70;;;;;;;-128.00;-1.00;-1.00;105591;1251;1058814;-80
2023/09/06 04:05:27;;;;;;;10.40;7.10;;;;;;;-128.00;-1.00;-1.00;105571;1253;1004586;-80
2023/09/06 04:07:55;;;;;;;9.50;6.30;;;;;;;-128.00;-1.00;-1.00;105549;1254;1046333;-80
2023/09/06 04:10:27;;;;;;;12.30;8.00;;;;;;;-128.00;-1.00;-1.00;105714;1254;1047423;-80
2023/09/06 04:12:55;;;;;;;12.00;6.90;;;;;;;-128.00;-1.00;-1.00;105714;1251;1060779;-80
2023/09/06 04:15:21;;;;;;;12.20;7.40;;;;;;;-128.00;-1.00;-1.00;105585;1252;1004018;-80
2023/09/06 04:18:01;;;;;;;11.20;6.60;;;;;;;-128.00;-1.00;-1.00;105725;1254;1004585;-80
2023/09/06 04:20:31;;;;;;;14.30;7.20;;;;;;;-128.00;-1.00;-1.00;105549;1253;1044824;-80
2023/09/06 04:22:58;;;;;;;12.70;8.00;;;;;;;-128.00;-1.00;-1.00;105592;1253;1046726;-80
2023/09/06 04:25:26;;;;;;;13.30;7.60;;;;;;;-128.00;-1.00;-1.00;105733;1253;1003782;-80
2023/09/06 04:27:56;;;;;;;11.30;7.00;;;;;;;-128.00;-1.00;-1.00;105730;1254;1004853;-80
2023/09/06 04:30:24;;;;;;;11.40;7.10;;;;;;;-128.00;-1.00;-1.00;105572;1254;1059262;-80
2023/09/06 04:32:51;;;;;;;18.10;7.30;;;;;;;-128.00;-1.00;-1.00;105687;1255;1004964;-80
2023/09/06 04:35:17;;;;;;;10.80;6.70;;;;;;;-128.00;-1.00;-1.00;105765;1252;1003854;-80
2023/09/06 04:37:46;;;;;;;12.00;7.40;;;;;;;-128.00;-1.00;-1.00;105594;1253;1062470;-80
2023/09/06 04:40:13;;;;;;;11.70;7.50;;;;;;;-128.00;-1.00;-1.00;105582;1254;1004658;-80
2023/09/06 04:42:40;;;;;;;10.30;6.70;;;;;;;-128.00;-1.00;-1.00;105529;1252;1003849;-80
2023/09/06 04:45:09;;;;;;;17.00;9.20;;;;;;;-128.00;-1.00;-1.00;105750;1251;1004432;-80
2023/09/06 04:47:43;;;;;;;14.20;8.60;;;;;;;-128.00;-1.00;-1.00;105820;1251;1046562;-80
2023/09/06 04:50:11;;;;;;;15.40;8.70;;;;;;;-128.00;-1.00;-1.00;105613;1251;1062118;-80
2023/09/06 04:52:47;;;;;;;12.70;7.00;;;;;;;-128.00;-1.00;-1.00;105803;1251;1003427;-83
2023/09/06 04:55:14;;;;;;;15.90;7.70;;;;;;;-128.00;-1.00;-1.00;105499;1251;1058988;-80
2023/09/06 04:57:41;;;;;;;18.50;9.40;;;;;;;-128.00;-1.00;-1.00;105595;1251;1005016;-80
2023/09/06 05:00:17;;;;;;;12.10;7.30;;;;;;;-128.00;-1.00;-1.00;105499;1251;1003711;-80
2023/09/06 05:02:45;;;;;;;16.20;10.80;;;;;;;-128.00;-1.00;-1.00;105542;1251;1061594;-80
2023/09/06 05:05:13;;;;;;;11.50;7.40;;;;;;;-128.00;-1.00;-1.00;105754;1251;1004496;-80
2023/09/06 05:07:44;;;;;;;17.60;6.80;;;;;;;-128.00;-1.00;-1.00;105718;1250;1060190;-80
2023/09/06 05:10:11;;;;;;;11.00;6.50;;;;;;;-128.00;-1.00;-1.00;105378;1252;1046217;-80
2023/09/06 05:12:38;;;;;;;13.90;7.20;;;;;;;-128.00;-1.00;-1.00;105601;1251;1003952;-80
2023/09/06 05:15:05;;;;;;;11.00;7.10;;;;;;;-128.00;-1.00;-1.00;105566;1251;1003297;-80
2023/09/06 05:17:32;;;;;;;10.60;6.80;;;;;;;-128.00;-1.00;-1.00;105479;1251;1004665;-80
2023/09/06 05:20:33;;;;;;;11.90;7.50;;;;;;;-128.00;-1.00;-1.00;105549;1251;1004096;-80
2023/09/06 05:23:07;;;;;;;12.30;7.30;;;;;;;-128.00;-1.00;-1.00;105549;1252;1045772;-80
2023/09/06 05:25:34;;;;;;;10.20;7.00;;;;;;;-128.00;-1.00;-1.00;105538;1251;1047218;-80
2023/09/06 05:28:03;;;;;;;13.00;7.50;;;;;;;-128.00;-1.00;-1.00;105583;1251;1004121;-80
2023/09/06 05:30:30;;;;;;;13.00;7.50;;;;;;;-128.00;-1.00;-1.00;105591;1251;1057752;-80
2023/09/06 05:32:56;;;;;;;12.60;7.10;;;;;;;-128.00;-1.00;-1.00;105552;1251;1003794;-80
2023/09/06 05:35:24;;;;;;;14.60;7.90;;;;;;;-128.00;-1.00;-1.00;105595;1253;1004350;-80
2023/09/06 05:37:50;;;;;;;10.30;7.30;;;;;;;-128.00;-1.00;-1.00;105573;1253;1004343;-81
2023/09/06 05:40:22;;;;;;;10.00;7.10;;;;;;;-128.00;-1.00;-1.00;105542;1251;1004376;-80
2023/09/06 05:42:49;;;;;;;12.10;7.40;;;;;;;-128.00;-1.00;-1.00;105553;1251;1057605;-80
2023/09/06 05:45:17;;;;;;;15.40;7.80;;;;;;;-128.00;-1.00;-1.00;105417;1251;1004627;-80
2023/09/06 05:47:43;;;;;;;17.30;7.90;;;;;;;-128.00;-1.00;-1.00;105529;1251;1005093;-81
2023/09/06 05:50:10;;;;;;;17.40;7.00;;;;;;;-128.00;-1.00;-1.00;105544;1251;1003896;-80
2023/09/06 05:52:37;;;;;;;12.40;6.70;;;;;;;-128.00;-1.00;-1.00;105559;1251;1004605;-80
2023/09/06 05:55:04;;;;;;;13.70;7.90;;;;;;;-128.00;-1.00;-1.00;105576;1250;1004205;-80
2023/09/06 05:57:31;;;;;;;16.80;6.80;;;;;;;-128.00;-1.00;-1.00;105435;1251;1004345;-81
2023/09/06 05:59:58;;;;;;;12.80;7.50;;;;;;;-128.00;-1.00;-1.00;105487;1256;1004506;-81
2023/09/06 06:02:25;;;;;;;12.50;7.30;;;;;;;-128.00;-1.00;-1.00;105617;1254;1005852;-81
2023/09/06 06:04:52;;;;;;;12.70;6.40;;;;;;;-128.00;-1.00;-1.00;105524;1253;1004383;-80
2023/09/06 06:07:19;;;;;;;14.90;7.90;;;;;;;-128.00;-1.00;-1.00;105450;1251;1003958;-81
2023/09/06 06:09:46;;;;;;;10.70;7.20;;;;;;;-128.00;-1.00;-1.00;105484;1251;1005224;-82
2023/09/06 06:12:13;;;;;;;15.60;7.60;;;;;;;-128.00;-1.00;-1.00;105577;1251;1004589;-81
2023/09/06 06:14:41;;;;;;;13.20;7.20;;;;;;;-128.00;-1.00;-1.00;105567;1254;1004392;-80
2023/09/06 06:17:09;;;;;;;14.20;8.00;;;;;;;-128.00;-1.00;-1.00;105475;1251;1003912;-81
2023/09/06 06:19:36;;;;;;;11.30;6.60;;;;;;;-128.00;-1.00;-1.00;105571;1251;1004485;-81
2023/09/06 06:22:03;;;;;;;10.70;7.70;;;;;;;-128.00;-1.00;-1.00;105562;1252;1004161;-81
2023/09/06 06:24:32;;;;;;;9.20;7.00;;;;;;;-128.00;-1.00;-1.00;105556;1251;1003817;-81
2023/09/06 06:26:59;;;;;;;9.90;6.50;;;;;;;-128.00;-1.00;-1.00;105597;1252;1047629;-82
2023/09/06 06:29:25;;;;;;;11.80;7.30;;;;;;;-128.00;-1.00;-1.00;105594;1251;1004471;-82
2023/09/06 06:31:52;;;;;;;11.60;7.60;;;;;;;-128.00;-1.00;-1.00;105652;1256;1004765;-81
2023/09/06 06:34:19;;;;;;;10.80;8.30;;;;;;;-128.00;-1.00;-1.00;105692;1254;1004459;-82
2023/09/06 06:36:46;;;;;;;11.40;7.40;;;;;;;-128.00;-1.00;-1.00;105701;1255;1004086;-81
2023/09/06 06:39:13;;;;;;;14.30;7.80;;;;;;;-128.00;-1.00;-1.00;105661;1253;1003963;-81
2023/09/06 06:41:40;;;;;;;14.90;7.00;;;;;;;-128.00;-1.00;-1.00;105726;1253;1004776;-81
2023/09/06 06:44:08;;;;;;;11.10;6.70;;;;;;;-128.00;-1.00;-1.00;105797;1251;1004402;-81
2023/09/06 06:46:37;;;;;;;13.20;6.70;;;;;;;-128.00;-1.00;-1.00;105781;1251;1004624;-81
2023/09/06 06:49:07;;;;;;;12.60;7.30;;;;;;;-128.00;-1.00;-1.00;105641;1256;1046931;-81
2023/09/06 06:51:35;;;;;;;10.30;6.60;;;;;;;-128.00;-1.00;-1.00;105754;1251;1045973;-81
2023/09/06 06:54:02;;;;;;;11.50;6.80;;;;;;;-128.00;-1.00;-1.00;105622;1253;1003514;-81
2023/09/06 06:56:28;;;;;;;11.10;6.90;;;;;;;-128.00;-1.00;-1.00;105523;1252;1004117;-81
2023/09/06 06:58:54;;;;;;;14.60;9.60;;;;;;;-128.00;-1.00;-1.00;105638;1251;1004519;-81
2023/09/06 07:01:23;;;;;;;18.20;11.30;;;;;;;-128.00;-1.00;-1.00;105543;1255;1003687;-81
2023/09/06 07:03:50;;;;;;;11.50;7.80;;;;;;;-128.00;-1.00;-1.00;105614;1251;1003977;-81
2023/09/06 07:06:16;;;;;;;8.90;5.60;;;;;;;-128.00;-1.00;-1.00;105562;1251;1003369;-81
2023/09/06 07:08:43;;;;;;;7.70;6.00;;;;;;;-128.00;-1.00;-1.00;105534;1251;1003989;-82
2023/09/06 07:11:09;;;;;;;6.80;5.70;;;;;;;-128.00;-1.00;-1.00;105534;1251;1003923;-82
2023/09/06 07:13:36;;;;;;;8.60;5.30;;;;;;;-128.00;-1.00;-1.00;105517;1252;1004232;-82
2023/09/06 07:16:03;;;;;;;10.70;5.90;;;;;;;-128.00;-1.00;-1.00;105592;1251;1004669;-82
2023/09/06 07:18:29;;;;;;;10.60;4.80;;;;;;;-128.00;-1.00;-1.00;105566;1251;1004003;-82
2023/09/06 07:20:56;;;;;;;7.30;5.00;;;;;;;-128.00;-1.00;-1.00;105531;1251;1004144;-83
2023/09/06 07:23:22;;;;;;;8.80;5.30;;;;;;;-128.00;-1.00;-1.00;105531;1251;1004448;-82
2023/09/06 07:25:49;;;;;;;12.30;5.30;;;;;;;-128.00;-1.00;-1.00;105518;1251;1004870;-82
2023/09/06 07:28:15;;;;;;;11.20;4.80;;;;;;;-128.00;-1.00;-1.00;105519;1250;1004735;-82
2023/09/06 07:30:42;;;;;;;7.00;5.10;;;;;;;-128.00;-1.00;-1.00;105476;1254;1003728;-82
2023/09/06 07:33:08;;;;;;;6.90;3.90;;;;;;;-128.00;-1.00;-1.00;105449;1251;1004148;-82
2023/09/06 07:35:35;;;;;;;9.40;4.90;;;;;;;-128.00;-1.00;-1.00;105443;1251;1005136;-82
2023/09/06 07:38:01;;;;;;;9.90;4.90;;;;;;;-128.00;-1.00;-1.00;105525;1253;1004467;-82
2023/09/06 07:40:28;;;;;;;10.60;4.20;;;;;;;-128.00;-1.00;-1.00;105559;1251;1004402;-82
2023/09/06 07:42:54;;;;;;;8.20;4.10;;;;;;;-128.00;-1.00;-1.00;105558;1251;1003524;-83
2023/09/06 07:45:20;;;;;;;4.60;4.10;;;;;;;-128.00;-1.00;-1.00;105583;1252;1004689;-82
2023/09/06 07:47:47;;;;;;;5.70;4.50;;;;;;;-128.00;-1.00;-1.00;105503;1254;1003884;-82
2023/09/06 07:50:14;;;;;;;5.10;4.00;;;;;;;-128.00;-1.00;-1.00;105593;1256;1003914;-83
2023/09/06 07:52:40;;;;;;;9.50;4.20;;;;;;;-128.00;-1.00;-1.00;105544;1253;1003909;-83
2023/09/06 07:55:07;;;;;;;5.70;4.00;;;;;;;-128.00;-1.00;-1.00;105572;1251;1003587;-83
2023/09/06 07:57:34;;;;;;;4.50;3.60;;;;;;;-128.00;-1.00;-1.00;105551;1251;1004836;-83
2023/09/06 08:00:00;;;;;;;6.90;3.50;;;;;;;-128.00;-1.00;-1.00;105580;1251;1004437;-83
2023/09/06 08:02:27;;;;;;;8.70;3.60;;;;;;;-128.00;-1.00;-1.00;105541;1251;1004351;-83
2023/09/06 08:04:54;;;;;;;5.30;3.50;;;;;;;-128.00;-1.00;-1.00;105581;1251;1003914;-83
2023/09/06 08:07:22;;;;;;;6.70;3.80;;;;;;;-128.00;-1.00;-1.00;105570;1251;1003708;-83
2023/09/06 08:09:49;;;;;;;6.30;3.70;;;;;;;-128.00;-1.00;-1.00;105562;1251;1004001;-83
2023/09/06 08:12:16;;;;;;;5.40;4.00;;;;;;;-128.00;-1.00;-1.00;105525;1251;1004957;-83
2023/09/06 08:14:43;;;;;;;6.30;4.10;;;;;;;-128.00;-1.00;-1.00;105585;1250;1004784;-83
2023/09/06 08:17:10;;;;;;;7.80;5.50;;;;;;;-128.00;-1.00;-1.00;105592;1251;1005313;-83
2023/09/06 08:19:37;;;;;;;6.40;4.50;;;;;;;-128.00;-1.00;-1.00;105528;1254;1004179;-83
2023/09/06 08:22:03;;;;;;;5.40;4.40;;;;;;;-128.00;-1.00;-1.00;105553;1251;1003944;-83
2023/09/06 08:24:31;;;;;;;8.70;5.30;;;;;;;-128.00;-1.00;-1.00;105438;1253;1004361;-83
2023/09/06 08:26:58;;;;;;;8.40;4.30;;;;;;;-128.00;-1.00;-1.00;105480;1255;1004950;-83
2023/09/06 08:29:24;;;;;;;6.90;3.80;;;;;;;-128.00;-1.00;-1.00;105365;1251;1004568;-84
2023/09/06 08:31:51;;;;;;;4.50;3.60;;;;;;;-128.00;-1.00;-1.00;105421;1251;1004989;-83
2023/09/06 08:34:17;;;;;;;4.70;3.40;;;;;;;-128.00;-1.00;-1.00;105457;1251;1004790;-83
2023/09/06 08:36:43;;;;;;;4.40;3.60;;;;;;;-128.00;-1.00;-1.00;105468;1251;1004429;-83
2023/09/06 08:39:10;;;;;;;4.90;3.30;;;;;;;-128.00;-1.00;-1.00;105409;1251;1003633;-83
2023/09/06 08:41:36;;;;;;;5.70;3.90;;;;;;;-128.00;-1.00;-1.00;105592;1251;1003401;-84
2023/09/06 08:44:04;;;;;;;5.60;4.10;;;;;;;-128.00;-1.00;-1.00;105572;1251;1003729;-84
2023/09/06 08:46:30;;;;;;;7.00;3.70;;;;;;;-128.00;-1.00;-1.00;105532;1251;1004699;-83
2023/09/06 08:48:57;;;;;;;5.90;3.60;;;;;;;-128.00;-1.00;-1.00;105568;1251;1003908;-83
2023/09/06 08:51:23;;;;;;;4.30;3.40;;;;;;;-128.00;-1.00;-1.00;105588;1251;1004984;-83
2023/09/06 08:53:49;;;;;;;6.40;4.10;;;;;;;-128.00;-1.00;-1.00;105346;1253;1003994;-84
2023/09/06 08:56:16;;;;;;;5.00;4.00;;;;;;;-128.00;-1.00;-1.00;105514;1251;1003985;-84
2023/09/06 08:58:42;;;;;;;5.90;3.50;;;;;;;-128.00;-1.00;-1.00;105499;1251;1004136;-84
2023/09/06 09:01:09;;;;;;;3.70;2.90;;;;;;;-128.00;-1.00;-1.00;105524;1251;1004732;-84
2023/09/06 09:03:35;;;;;;;5.20;2.90;;;;;;;-128.00;-1.00;-1.00;105601;1251;1004510;-84
2023/09/06 09:06:09;;;;;;;6.20;3.70;;;;;;;-128.00;-1.00;-1.00;105522;1253;1005186;-83
2023/09/06 09:08:35;;;;;;;3.60;3.10;;;;;;;-128.00;-1.00;-1.00;105412;1254;1062675;-84
2023/09/06 09:11:15;;;;;;;4.80;2.60;;;;;;;-128.00;-1.00;-1.00;105608;1251;1004014;-84
2023/09/06 09:13:42;;;;;;;5.20;3.30;;;;;;;-128.00;-1.00;-1.00;105527;1251;1059090;-83
2023/09/06 09:16:10;;;;;;;4.90;2.90;;;;;;;-128.00;-1.00;-1.00;105589;1251;1004521;-84
2023/09/06 09:18:37;;;;;;;6.30;2.90;;;;;;;-128.00;-1.00;-1.00;105542;1251;1005454;-83
2023/09/06 09:21:04;;;;;;;4.30;2.70;;;;;;;-128.00;-1.00;-1.00;105547;1251;1004965;-82
2023/09/06 09:23:31;;;;;;;4.80;2.80;;;;;;;-128.00;-1.00;-1.00;105582;1251;1004452;-82
2023/09/06 09:25:58;;;;;;;4.30;3.10;;;;;;;-128.00;-1.00;-1.00;105571;1251;1004361;-82
2023/09/06 09:28:24;;;;;;;10.20;7.80;;;;;;;-128.00;-1.00;-1.00;105399;1251;1004455;-83
2023/09/06 09:30:51;;;;;;;5.60;4.90;;;;;;;-128.00;-1.00;-1.00;105574;1251;1004270;-82
2023/09/06 09:33:18;;;;;;;5.30;3.80;;;;;;;-128.00;-1.00;-1.00;105589;1251;1004341;-82
2023/09/06 09:35:46;;;;;;;4.10;3.30;;;;;;;-128.00;-1.00;-1.00;105553;1251;1004317;-82
2023/09/06 09:38:12;;;;;;;4.60;3.40;;;;;;;-128.00;-1.00;-1.00;105543;1251;1004134;-82
2023/09/06 09:40:39;;;;;;;4.90;3.90;;;;;;;-128.00;-1.00;-1.00;105530;1254;1004807;-82
2023/09/06 09:43:05;;;;;;;4.20;3.10;;;;;;;-128.00;-1.00;-1.00;105597;1251;1003913;-82
2023/09/06 09:45:40;;;;;;;4.70;3.40;;;;;;;-128.00;-1.00;-1.00;105586;1251;1003686;-82
2023/09/06 09:48:07;;;;;;;10.80;4.10;;;;;;;-128.00;-1.00;-1.00;105613;1251;1058369;-82
2023/09/06 09:50:34;;;;;;;5.10;3.50;;;;;;;-128.00;-1.00;-1.00;105519;1251;1004554;-83
2023/09/06 09:53:03;;;;;;;7.80;4.00;;;;;;;-128.00;-1.00;-1.00;105427;1250;1004808;-82
2023/09/06 09:55:32;;;;;;;4.90;4.10;;;;;;;-128.00;-1.00;-1.00;105476;1251;1047092;-82
2023/09/06 09:57:58;;;;;;;6.10;4.50;;;;;;;-128.00;-1.00;-1.00;105585;1251;1061375;-82
2023/09/06 10:00:28;;;;;;;8.00;4.50;;;;;;;-128.00;-1.00;-1.00;105573;1251;1004937;-82
2023/09/06 10:02:58;;;;;;;8.90;4.80;;;;;;;-128.00;-1.00;-1.00;105457;1251;1060168;-81
2023/09/06 10:05:28;;;;;;;6.40;4.00;;;;;;;-128.00;-1.00;-1.00;105562;1250;1045102;-81
2023/09/06 10:07:55;;;;;;;9.40;5.60;;;;;;;-128.00;-1.00;-1.00;105563;1251;1046415;-81
2023/09/06 10:10:26;;;;;;;6.30;3.90;;;;;;;-128.00;-1.00;-1.00;105409;1253;1003721;-82
2023/09/06 10:12:53;;;;;;;6.90;4.40;;;;;;;-128.00;-1.00;-1.00;105535;1254;1058119;-82
2023/09/06 10:15:23;;;;;;;5.20;3.60;;;;;;;-128.00;-1.00;-1.00;105559;1251;1003475;-82
2023/09/06 10:17:50;;;;;;;6.40;4.70;;;;;;;-128.00;-1.00;-1.00;105549;1251;1044013;-82
2023/09/06 10:20:22;;;;;;;5.40;3.90;;;;;;;-128.00;-1.00;-1.00;105561;1251;1004502;-82
2023/09/06 10:22:53;;;;;;;9.10;7.80;;;;;;;-128.00;-1.00;-1.00;105584;1250;1060380;-82
2023/09/06 10:25:20;;;;;;;5.70;4.50;;;;;;;-128.00;-1.00;-1.00;105543;1251;1057322;-82
2023/09/06 10:27:53;;;;;;;6.70;5.40;;;;;;;-128.00;-1.00;-1.00;105434;1251;1004855;-82
2023/09/06 10:30:44;;;;;;;4.90;4.00;;;;;;;-128.00;-1.00;-1.00;105534;1251;1044914;-82
2023/09/06 10:33:33;;;;;;;6.40;3.80;;;;;;;-128.00;-1.00;-1.00;105579;1250;1047589;-82
2023/09/06 10:36:05;;;;;;;5.50;4.40;;;;;;;-128.00;-1.00;-1.00;105595;1251;1060719;-82
2023/09/06 10:38:35;;;;;;;7.10;4.00;;;;;;;-128.00;-1.00;-1.00;105566;1251;1058699;-82
2023/09/06 10:41:05;;;;;;;6.60;3.90;;;;;;;-128.00;-1.00;-1.00;105557;1250;1059033;-82
2023/09/06 10:43:54;;;;;;;7.50;4.70;;;;;;;-128.00;-1.00;-1.00;105558;1251;1044047;-82
2023/09/06 10:46:26;;;;;;;6.40;4.00;;;;;;;-128.00;-1.00;-1.00;105571;1250;1047246;-82
2023/09/06 10:49:11;;;;;;;8.50;3.90;;;;;;;-128.00;-1.00;-1.00;105564;1251;1060449;-82
2023/09/06 10:51:57;;;;;;;6.80;4.50;;;;;;;-128.00;-1.00;-1.00;105560;1251;1057521;-82
2023/09/06 10:54:35;;;;;;;5.00;4.00;;;;;;;-128.00;-1.00;-1.00;105456;1251;1060255;-82
2023/09/06 10:57:06;;;;;;;4.60;3.70;;;;;;;-128.00;-1.00;-1.00;105477;1251;1045688;-82
2023/09/06 10:59:39;;;;;;;4.80;3.40;;;;;;;-128.00;-1.00;-1.00;105630;1251;1048451;-82
2023/09/06 11:02:26;;;;;;;7.90;5.10;;;;;;;-128.00;-1.00;-1.00;105519;1251;1060644;-82
2023/09/06 11:05:04;;;;;;;6.20;4.20;;;;;;;-128.00;-1.00;-1.00;105556;1250;1058753;-82
2023/09/06 11:07:44;;;;;;;5.80;4.20;;;;;;;-128.00;-1.00;-1.00;105380;1254;1058825;-82
2023/09/06 11:10:11;;;;;;;5.50;4.80;;;;;;;-128.00;-1.00;-1.00;105736;1251;1044157;-82
2023/09/06 11:12:38;;;;;;;5.90;4.30;;;;;;;-128.00;-1.00;-1.00;105551;1254;1003480;-82
2023/09/06 11:15:09;;;;;;;5.50;3.60;;;;;;;-128.00;-1.00;-1.00;105770;1250;1004964;-82
2023/09/06 11:17:36;;;;;;;6.40;4.40;;;;;;;-128.00;-1.00;-1.00;105694;1251;1059127;-82